Time;durP1;ratioP1;P1;durP2;ratioP2;P2;SDS_P1;SDS_P2;PMS_P1;PMS_P2;Temp;Humidity;BMP_temperature;BMP_pressure;BME280_temperature;BME280_humidity;BME280_pressure;Samples;Min_cycle;Max_cycle;Signal;HPM_P1;HPM_P2
2024/01/27 00:01:55;;;;;;;19.73;5.40;;;2.60;99.90;;;;;;5058765;28;20052;-63
2024/01/27 00:04:20;;;;;;;22.73;4.75;;;2.60;99.90;;;;;;5064999;28;20056;-63
2024/01/27 00:06:46;;;;;;;27.67;5.60;;;2.60;99.90;;;;;;5060327;28;20468;-63
2024/01/27 00:09:12;;;;;;;21.45;5.75;;;2.60;99.90;;;;;;5056882;28;20073;-63
2024/01/27 00:11:37;;;;;;;19.52;5.60;;;2.60;99.90;;;;;;5055386;28;20479;-64
2024/01/27 00:14:03;;;;;;;25.17;5.43;;;2.60;99.90;;;;;;5060273;28;20032;-63
2024/01/27 00:16:28;;;;;;;29.83;6.20;;;2.60;99.90;;;;;;5062347;28;20033;-63
2024/01/27 00:18:55;;;;;;;22.88;5.88;;;2.60;99.90;;;;;;5058821;28;20546;-63
2024/01/27 00:21:21;;;;;;;14.90;4.45;;;2.50;99.90;;;;;;5056910;28;20049;-63
2024/01/27 00:23:46;;;;;;;17.40;4.72;;;2.50;99.90;;;;;;5066737;28;20029;-63
2024/01/27 00:26:12;;;;;;;17.33;4.82;;;2.60;99.90;;;;;;5057997;28;20026;-63
2024/01/27 00:28:37;;;;;;;18.70;4.07;;;2.60;99.90;;;;;;5063533;28;20094;-65
2024/01/27 00:31:03;;;;;;;12.20;3.65;;;2.40;99.90;;;;;;5058206;28;20032;-65
2024/01/27 00:33:29;;;;;;;20.00;5.93;;;2.40;99.90;;;;;;5062066;28;20055;-65
2024/01/27 00:35:55;;;;;;;15.68;6.10;;;2.40;99.90;;;;;;5054696;28;20025;-65
2024/01/27 00:38:20;;;;;;;13.27;4.18;;;2.40;99.90;;;;;;5061034;28;20036;-64
2024/01/27 00:40:46;;;;;;;18.88;5.57;;;2.40;99.90;;;;;;5060035;28;20036;-64
2024/01/27 00:43:11;;;;;;;23.42;5.72;;;2.40;99.90;;;;;;5054454;28;20028;-64
2024/01/27 00:45:37;;;;;;;23.58;5.53;;;2.40;99.90;;;;;;5061599;28;20391;-64
2024/01/27 00:48:03;;;;;;;25.60;5.18;;;2.40;99.90;;;;;;5058887;28;20407;-64
2024/01/27 00:50:28;;;;;;;18.63;4.25;;;2.50;99.90;;;;;;5057727;28;20083;-64
2024/01/27 00:52:54;;;;;;;30.80;6.72;;;2.40;99.90;;;;;;5058058;28;20102;-64
2024/01/27 00:55:19;;;;;;;20.77;5.15;;;2.40;99.90;;;;;;5062218;28;20036;-64
2024/01/27 00:57:45;;;;;;;24.35;4.72;;;2.40;99.90;;;;;;5058076;28;20024;-64
2024/01/27 01:00:11;;;;;;;14.38;3.85;;;2.30;99.90;;;;;;5060156;28;20086;-64
2024/01/27 01:02:37;;;;;;;14.43;4.90;;;2.40;99.90;;;;;;5057730;28;20032;-65
2024/01/27 01:05:04;;;;;;;22.90;5.05;;;2.30;99.90;;;;;;5056447;28;20032;-65
2024/01/27 01:07:30;;;;;;;23.80;4.78;;;2.40;99.90;;;;;;5057343;28;20028;-64
2024/01/27 01:09:56;;;;;;;15.60;5.03;;;2.40;99.90;;;;;;5061520;28;20025;-64
2024/01/27 01:12:22;;;;;;;21.40;5.15;;;2.40;99.90;;;;;;5056187;28;20080;-64
2024/01/27 01:14:47;;;;;;;21.25;5.15;;;2.30;99.90;;;;;;5056455;28;20036;-64
2024/01/27 01:17:13;;;;;;;22.13;6.10;;;2.20;99.90;;;;;;5056279;28;20844;-64
2024/01/27 01:19:39;;;;;;;20.27;5.20;;;2.00;99.90;;;;;;5051550;28;20028;-64
2024/01/27 01:22:05;;;;;;;19.75;5.10;;;1.90;99.90;;;;;;5053030;28;20017;-65
2024/01/27 01:24:31;;;;;;;26.13;5.47;;;1.90;99.90;;;;;;5058642;28;20484;-65
2024/01/27 01:26:57;;;;;;;18.17;6.03;;;1.90;99.90;;;;;;5051586;28;20028;-65
2024/01/27 01:29:22;;;;;;;20.70;5.35;;;2.00;99.90;;;;;;5060974;28;20060;-65
2024/01/27 01:31:48;;;;;;;20.25;4.90;;;2.00;99.90;;;;;;5063837;28;20502;-64
2024/01/27 01:34:14;;;;;;;20.85;5.07;;;2.00;99.90;;;;;;5057127;28;20341;-65
2024/01/27 01:36:40;;;;;;;25.90;6.20;;;2.00;99.90;;;;;;5063459;28;20024;-64
2024/01/27 01:39:07;;;;;;;15.55;5.30;;;2.00;99.90;;;;;;5059242;28;20412;-62
2024/01/27 01:41:32;;;;;;;20.20;5.47;;;1.90;99.90;;;;;;5060361;28;20460;-63
2024/01/27 01:43:59;;;;;;;21.52;5.07;;;1.90;99.90;;;;;;5058207;28;20040;-63
2024/01/27 01:46:24;;;;;;;23.02;6.93;;;1.90;99.90;;;;;;5062095;28;20139;-62
2024/01/27 01:48:50;;;;;;;18.83;5.03;;;1.90;99.90;;;;;;5058751;28;20108;-63
2024/01/27 01:51:16;;;;;;;20.88;5.82;;;1.80;99.90;;;;;;5060505;28;20086;-63
2024/01/27 01:53:45;;;;;;;15.70;5.53;;;1.60;99.90;;;;;;5064303;28;20028;-62
2024/01/27 01:56:13;;;;;;;22.95;5.60;;;1.60;99.90;;;;;;5061537;28;20032;-63
2024/01/27 01:58:39;;;;;;;19.33;5.43;;;1.50;99.90;;;;;;5058926;28;20398;-63
2024/01/27 02:01:04;;;;;;;17.98;5.40;;;1.60;99.90;;;;;;5054422;28;20032;-63
2024/01/27 02:03:30;;;;;;;18.95;5.45;;;1.70;99.90;;;;;;5066558;28;20134;-63
2024/01/27 02:05:55;;;;;;;23.23;6.03;;;1.60;99.90;;;;;;5063120;28;20020;-63
2024/01/27 02:08:21;;;;;;;21.67;5.07;;;1.50;99.90;;;;;;5055313;28;20055;-63
2024/01/27 02:10:47;;;;;;;23.17;5.65;;;1.40;99.90;;;;;;5061092;28;20468;-63
2024/01/27 02:13:20;;;;;;;28.65;6.53;;;1.30;99.90;;;;;;5060993;28;20579;-63
2024/01/27 02:15:47;;;;;;;27.42;6.03;;;1.20;99.90;;;;;;5060243;28;20039;-63
2024/01/27 02:18:13;;;;;;;19.90;5.25;;;1.20;99.90;;;;;;5075864;28;20052;-62
2024/01/27 02:20:39;;;;;;;20.88;5.70;;;1.30;99.90;;;;;;5066017;28;20040;-63
2024/01/27 02:23:05;;;;;;;22.85;5.15;;;1.30;99.90;;;;;;5053697;28;20096;-63
2024/01/27 02:25:31;;;;;;;22.10;4.03;;;1.30;99.90;;;;;;5064586;28;20084;-63
2024/01/27 02:27:57;;;;;;;17.85;5.20;;;1.20;99.90;;;;;;5065421;28;20032;-63
2024/01/27 02:30:23;;;;;;;16.05;5.63;;;1.20;99.90;;;;;;5068030;28;20021;-62
2024/01/27 02:32:48;;;;;;;23.08;5.53;;;1.30;99.90;;;;;;5065984;28;20028;-63
2024/01/27 02:35:14;;;;;;;18.50;5.50;;;1.40;99.90;;;;;;5055185;28;20479;-63
2024/01/27 02:37:40;;;;;;;19.05;5.70;;;1.50;99.90;;;;;;5062199;28;20037;-63
2024/01/27 02:40:07;;;;;;;18.13;5.70;;;1.60;99.90;;;;;;5059684;28;20127;-63
2024/01/27 02:42:33;;;;;;;22.98;5.53;;;1.60;99.90;;;;;;5063402;28;20017;-63
2024/01/27 02:44:59;;;;;;;22.45;5.25;;;1.60;99.90;;;;;;5065454;28;20063;-63
2024/01/27 02:47:24;;;;;;;21.27;5.00;;;1.50;99.90;;;;;;5061209;28;20056;-63
2024/01/27 02:49:50;;;;;;;22.63;5.30;;;1.40;99.90;;;;;;5061378;28;20031;-63
2024/01/27 02:52:15;;;;;;;16.75;4.65;;;1.30;99.90;;;;;;5058466;28;20037;-63
2024/01/27 02:54:41;;;;;;;26.65;5.40;;;1.30;99.90;;;;;;5058507;28;20803;-63
2024/01/27 02:57:07;;;;;;;23.50;4.80;;;1.40;99.90;;;;;;5062803;28;20438;-63
2024/01/27 02:59:32;;;;;;;25.50;6.30;;;1.30;99.90;;;;;;5062735;28;20052;-63
2024/01/27 03:01:58;;;;;;;23.65;5.68;;;1.50;99.90;;;;;;5064917;28;20126;-63
2024/01/27 03:04:23;;;;;;;21.48;5.70;;;1.50;99.90;;;;;;5065453;28;20017;-63
2024/01/27 03:06:49;;;;;;;17.77;4.78;;;1.60;99.90;;;;;;5058360;28;20056;-63
2024/01/27 03:09:15;;;;;;;16.08;4.25;;;1.60;99.90;;;;;;5058399;28;20395;-63
2024/01/27 03:11:40;;;;;;;18.63;4.97;;;1.60;99.90;;;;;;5058927;28;20048;-63
2024/01/27 03:14:06;;;;;;;25.25;5.80;;;1.70;99.90;;;;;;5060467;28;20444;-63
2024/01/27 03:16:32;;;;;;;18.02;5.57;;;1.70;99.90;;;;;;5059688;28;20037;-63
2024/01/27 03:18:58;;;;;;;14.40;4.97;;;1.60;99.90;;;;;;5057086;28;20029;-63
2024/01/27 03:21:23;;;;;;;14.30;4.93;;;1.60;99.90;;;;;;5060947;28;20120;-63
2024/01/27 03:23:49;;;;;;;21.60;5.20;;;1.70;99.90;;;;;;5064360;28;20030;-63
2024/01/27 03:26:15;;;;;;;21.70;6.45;;;1.70;99.90;;;;;;5058805;28;20021;-62
2024/01/27 03:28:40;;;;;;;26.80;6.13;;;1.70;99.90;;;;;;5060712;28;20035;-62
2024/01/27 03:31:06;;;;;;;20.25;4.82;;;1.70;99.90;;;;;;5060189;28;20040;-63
2024/01/27 03:33:32;;;;;;;11.50;3.88;;;1.70;99.90;;;;;;5064170;28;20388;-62
2024/01/27 03:35:57;;;;;;;21.25;6.07;;;1.80;99.90;;;;;;5058885;28;20029;-63
2024/01/27 03:38:23;;;;;;;17.52;5.53;;;1.80;99.90;;;;;;5061948;28;20385;-64
2024/01/27 03:40:49;;;;;;;24.45;5.40;;;1.80;99.90;;;;;;5061193;28;20117;-63
2024/01/27 03:43:14;;;;;;;16.50;4.90;;;1.70;99.90;;;;;;5056851;28;20424;-63
2024/01/27 03:45:40;;;;;;;20.10;5.70;;;1.70;99.90;;;;;;5058572;28;20028;-63
2024/01/27 03:48:06;;;;;;;26.08;6.10;;;1.70;99.90;;;;;;5063635;28;20024;-63
2024/01/27 03:50:32;;;;;;;20.85;5.38;;;1.80;99.90;;;;;;5058491;28;20028;-64
2024/01/27 03:52:57;;;;;;;22.42;5.43;;;1.80;99.90;;;;;;5059127;28;20107;-63
2024/01/27 03:55:23;;;;;;;13.43;4.05;;;1.70;99.90;;;;;;5063540;28;20024;-63
2024/01/27 03:57:49;;;;;;;23.25;5.55;;;1.70;99.90;;;;;;5063421;28;20021;-63
2024/01/27 04:00:14;;;;;;;18.48;5.35;;;1.70;99.90;;;;;;5055330;28;20524;-65
2024/01/27 04:02:40;;;;;;;10.88;3.28;;;1.70;99.90;;;;;;5060374;28;20026;-65
2024/01/27 04:05:06;;;;;;;20.48;6.07;;;1.80;99.90;;;;;;5057598;28;20533;-64
2024/01/27 04:07:32;;;;;;;15.90;5.03;;;1.80;99.90;;;;;;5062680;28;20021;-64
2024/01/27 04:09:57;;;;;;;25.02;5.07;;;1.80;99.90;;;;;;5060388;28;20491;-64
2024/01/27 04:12:23;;;;;;;19.17;5.57;;;1.80;99.90;;;;;;5058645;28;20136;-65
2024/01/27 04:14:49;;;;;;;19.40;5.00;;;1.70;99.90;;;;;;5057793;28;20047;-64
2024/01/27 04:17:14;;;;;;;17.98;5.32;;;1.80;99.90;;;;;;5060278;28;20031;-65
2024/01/27 04:19:40;;;;;;;23.55;5.93;;;1.80;99.90;;;;;;5060669;28;20059;-65
2024/01/27 04:22:05;;;;;;;17.88;5.15;;;1.80;99.90;;;;;;5057074;28;20021;-65
2024/01/27 04:24:31;;;;;;;16.75;5.20;;;1.80;99.90;;;;;;5061330;28;20031;-65
2024/01/27 04:26:57;;;;;;;31.13;6.55;;;1.70;99.90;;;;;;5058815;28;20119;-64
2024/01/27 04:29:23;;;;;;;18.17;5.68;;;1.70;99.90;;;;;;5058712;28;20016;-64
2024/01/27 04:31:49;;;;;;;20.95;5.70;;;1.70;99.90;;;;;;5059968;28;20578;-64
2024/01/27 04:34:14;;;;;;;20.15;5.45;;;1.80;99.90;;;;;;5057734;28;20032;-64
2024/01/27 04:36:40;;;;;;;19.00;5.70;;;1.70;99.90;;;;;;5057951;28;20021;-64
2024/01/27 04:39:06;;;;;;;21.98;6.13;;;1.70;99.90;;;;;;5057143;28;20692;-64
2024/01/27 04:41:32;;;;;;;22.33;4.90;;;1.70;99.90;;;;;;5058188;28;20029;-64
2024/01/27 04:43:58;;;;;;;23.88;6.13;;;1.60;99.90;;;;;;5058130;28;20052;-65
2024/01/27 04:46:24;;;;;;;20.00;5.70;;;1.50;99.90;;;;;;5061873;28;20012;-65
2024/01/27 04:48:50;;;;;;;19.63;5.65;;;1.50;99.90;;;;;;5059204;28;20039;-65
2024/01/27 04:51:15;;;;;;;16.80;5.90;;;1.60;99.90;;;;;;5057428;28;20032;-65
2024/01/27 04:53:41;;;;;;;20.80;5.68;;;1.50;99.90;;;;;;5058786;28;20099;-65
2024/01/27 04:56:07;;;;;;;21.25;6.07;;;1.50;99.90;;;;;;5057128;28;20028;-64
2024/01/27 04:58:34;;;;;;;21.10;5.55;;;1.60;99.90;;;;;;5057401;28;20476;-64
2024/01/27 05:01:01;;;;;;;17.52;4.88;;;1.60;99.90;;;;;;5058534;28;20024;-65
2024/01/27 05:03:27;;;;;;;29.13;6.85;;;1.70;99.90;;;;;;5060499;28;20017;-64
2024/01/27 05:05:52;;;;;;;16.73;5.63;;;1.70;99.90;;;;;;5061443;28;20032;-64
2024/01/27 05:08:19;;;;;;;21.45;5.68;;;1.70;99.90;;;;;;5062134;28;20492;-64
2024/01/27 05:10:44;;;;;;;19.70;6.65;;;1.70;99.90;;;;;;5063744;28;20035;-65
2024/01/27 05:13:10;;;;;;;15.15;3.95;;;1.80;99.90;;;;;;5064119;28;20041;-65
2024/01/27 05:15:36;;;;;;;29.90;6.03;;;1.80;99.90;;;;;;5060273;28;20028;-65
2024/01/27 05:18:02;;;;;;;25.77;6.75;;;1.80;99.90;;;;;;5056937;28;20141;-65
2024/01/27 05:20:27;;;;;;;17.33;6.07;;;1.80;99.90;;;;;;5055867;28;20030;-65
2024/01/27 05:22:53;;;;;;;25.67;6.20;;;1.70;99.90;;;;;;5060919;28;20024;-65
2024/01/27 05:25:19;;;;;;;18.15;6.22;;;1.70;99.90;;;;;;5058294;28;20478;-65
2024/01/27 05:27:44;;;;;;;17.83;5.72;;;1.70;99.90;;;;;;5054712;28;20106;-65
2024/01/27 05:30:10;;;;;;;20.65;6.18;;;1.60;99.90;;;;;;5058434;28;20032;-65
2024/01/27 05:32:36;;;;;;;20.50;6.38;;;1.50;99.90;;;;;;5058682;28;20595;-65
2024/01/27 05:35:03;;;;;;;20.13;6.45;;;1.50;99.90;;;;;;5055977;28;20021;-65
2024/01/27 05:37:28;;;;;;;22.75;7.80;;;1.40;99.90;;;;;;5062820;28;20391;-64
2024/01/27 05:39:54;;;;;;;19.33;6.40;;;1.50;99.90;;;;;;5059247;28;20017;-64
2024/01/27 05:42:21;;;;;;;22.48;6.63;;;1.30;99.90;;;;;;5061553;28;20060;-64
2024/01/27 05:44:47;;;;;;;25.50;7.15;;;1.20;99.90;;;;;;5060608;28;20105;-65
2024/01/27 05:47:12;;;;;;;24.92;6.78;;;1.10;99.90;;;;;;5062543;28;20520;-64
2024/01/27 05:49:38;;;;;;;21.02;6.82;;;1.10;99.90;;;;;;5062394;28;20032;-65
2024/01/27 05:52:04;;;;;;;23.27;6.13;;;1.00;99.90;;;;;;5059467;28;20136;-65
2024/01/27 05:54:29;;;;;;;22.05;6.78;;;1.00;99.90;;;;;;5061665;28;20052;-65
2024/01/27 05:56:55;;;;;;;22.90;7.18;;;1.20;99.90;;;;;;5058389;28;20108;-65
2024/01/27 05:59:21;;;;;;;21.67;6.60;;;1.30;99.90;;;;;;5057652;28;20021;-65
2024/01/27 06:01:47;;;;;;;27.40;8.25;;;1.30;99.90;;;;;;5059631;28;20090;-65
2024/01/27 06:04:13;;;;;;;24.05;7.10;;;1.30;99.90;;;;;;5058297;28;20053;-65
2024/01/27 06:06:41;;;;;;;23.15;7.35;;;1.30;99.90;;;;;;5060465;28;20095;-65
2024/01/27 06:09:11;;;;;;;23.33;7.15;;;1.30;99.90;;;;;;5062323;28;20113;-65
2024/01/27 06:11:37;;;;;;;33.33;9.15;;;1.30;99.90;;;;;;5061447;28;20052;-65
2024/01/27 06:14:03;;;;;;;25.45;5.93;;;1.30;99.90;;;;;;5059009;28;20029;-64
2024/01/27 06:16:29;;;;;;;16.55;5.75;;;1.30;99.90;;;;;;5063684;28;20503;-65
2024/01/27 06:18:54;;;;;;;20.92;6.97;;;1.30;99.90;;;;;;5057774;28;20028;-65
2024/01/27 06:21:20;;;;;;;16.80;6.55;;;1.50;99.90;;;;;;5061861;28;20510;-65
2024/01/27 06:23:46;;;;;;;16.50;6.55;;;1.60;99.90;;;;;;5061376;28;20021;-64
2024/01/27 06:26:14;;;;;;;24.13;6.53;;;1.60;99.90;;;;;;5060573;28;20082;-65
2024/01/27 06:28:40;;;;;;;21.85;7.05;;;1.50;99.90;;;;;;5059540;28;20029;-65
2024/01/27 06:31:07;;;;;;;19.48;6.28;;;1.40;99.90;;;;;;5060206;28;20029;-65
2024/01/27 06:33:34;;;;;;;27.05;7.40;;;1.30;99.90;;;;;;5059017;28;20025;-65
2024/01/27 06:36:00;;;;;;;24.83;6.47;;;1.30;99.90;;;;;;5064757;28;20044;-65
2024/01/27 06:38:27;;;;;;;20.77;6.75;;;1.30;99.90;;;;;;5061464;28;20052;-65
2024/01/27 06:40:53;;;;;;;27.77;6.40;;;1.30;99.90;;;;;;5065061;28;20391;-65
2024/01/27 06:43:19;;;;;;;25.90;6.97;;;1.20;99.90;;;;;;5060461;28;20110;-65
2024/01/27 06:45:44;;;;;;;24.33;7.32;;;1.10;99.90;;;;;;5062229;28;20163;-65
2024/01/27 06:48:10;;;;;;;20.45;6.63;;;1.10;99.90;;;;;;5064397;28;20021;-65
2024/01/27 06:50:36;;;;;;;19.27;6.68;;;1.00;99.90;;;;;;5059507;28;20119;-65
2024/01/27 06:53:01;;;;;;;25.23;6.80;;;1.00;99.90;;;;;;5063892;28;20085;-65
2024/01/27 06:55:27;;;;;;;22.70;7.68;;;1.00;99.90;;;;;;5061184;28;20481;-65
2024/01/27 06:57:53;;;;;;;20.23;6.93;;;1.00;99.90;;;;;;5066854;28;20028;-65
2024/01/27 07:00:19;;;;;;;17.83;5.75;;;1.00;99.90;;;;;;5062833;28;20024;-65
2024/01/27 07:02:45;;;;;;;18.95;6.50;;;1.00;99.90;;;;;;5062140;28;20024;-65
2024/01/27 07:05:12;;;;;;;23.08;6.63;;;1.00;99.90;;;;;;5055458;28;20029;-65
2024/01/27 07:07:38;;;;;;;22.52;6.05;;;1.00;99.90;;;;;;5061515;28;20020;-64
2024/01/27 07:10:07;;;;;;;21.90;5.82;;;1.10;99.90;;;;;;5061670;28;20096;-65
2024/01/27 07:12:33;;;;;;;16.35;5.68;;;1.20;99.90;;;;;;5061599;28;20079;-65
2024/01/27 07:14:59;;;;;;;25.67;6.78;;;1.30;99.90;;;;;;5060144;28;20305;-65
2024/01/27 07:17:26;;;;;;;22.30;6.22;;;1.40;99.90;;;;;;5058848;28;20017;-66
2024/01/27 07:19:52;;;;;;;16.70;5.88;;;1.40;99.90;;;;;;5061355;28;20066;-65
2024/01/27 07:22:18;;;;;;;22.17;6.07;;;1.50;99.90;;;;;;5059259;28;20461;-65
2024/01/27 07:24:43;;;;;;;25.55;5.75;;;1.60;99.90;;;;;;5059250;28;20427;-65
2024/01/27 07:27:13;;;;;;;18.02;5.80;;;1.70;99.90;;;;;;5060620;28;20114;-65
2024/01/27 07:29:38;;;;;;;21.70;6.03;;;1.70;99.90;;;;;;5063197;28;20055;-65
2024/01/27 07:32:05;;;;;;;11.60;4.40;;;1.70;99.90;;;;;;5063270;28;20064;-65
2024/01/27 07:34:30;;;;;;;16.77;5.22;;;1.80;99.90;;;;;;5055901;28;20029;-65
2024/01/27 07:36:56;;;;;;;19.73;5.95;;;1.80;99.90;;;;;;5059642;28;20039;-65
2024/01/27 07:39:22;;;;;;;22.42;5.85;;;1.90;99.90;;;;;;5061006;28;20070;-64
2024/01/27 07:41:48;;;;;;;22.65;6.18;;;1.90;99.90;;;;;;5057999;28;20045;-64
2024/01/27 07:44:15;;;;;;;17.23;5.03;;;1.90;99.90;;;;;;5056763;28;20111;-64
2024/01/27 07:46:41;;;;;;;18.30;4.95;;;1.90;99.90;;;;;;5064622;28;20043;-64
2024/01/27 07:49:08;;;;;;;21.63;5.63;;;1.90;99.90;;;;;;5055975;28;20056;-65
2024/01/27 07:51:34;;;;;;;15.55;5.35;;;1.90;99.90;;;;;;5065559;28;20028;-64
2024/01/27 07:54:00;;;;;;;16.63;5.55;;;1.90;99.90;;;;;;5059112;28;20082;-64
2024/01/27 07:56:26;;;;;;;21.08;5.20;;;1.80;99.90;;;;;;5061773;28;20024;-63
2024/01/27 07:58:52;;;;;;;16.42;5.93;;;1.80;99.90;;;;;;5064705;28;20110;-63
2024/01/27 08:01:19;;;;;;;18.52;5.32;;;1.70;99.90;;;;;;5054148;28;20029;-62
2024/01/27 08:03:44;;;;;;;18.17;6.15;;;1.70;99.90;;;;;;5062598;28;20070;-63
2024/01/27 08:06:30;;;;;;;17.95;5.78;;;1.70;99.90;;;;;;5061798;28;20387;-63
2024/01/27 08:08:56;;;;;;;18.23;4.95;;;1.70;99.90;;;;;;5059742;28;20532;-62
2024/01/27 08:11:21;;;;;;;17.25;5.60;;;1.80;99.90;;;;;;5061067;28;20552;-62
2024/01/27 08:13:48;;;;;;;24.55;6.55;;;2.00;99.90;;;;;;5058663;28;20037;-64
2024/01/27 08:16:14;;;;;;;26.30;6.78;;;2.20;99.90;;;;;;5057787;28;20472;-63
2024/01/27 08:18:42;;;;;;;17.08;6.18;;;2.20;99.90;;;;;;5060266;28;20107;-64
2024/01/27 08:21:08;;;;;;;27.60;5.38;;;2.20;99.90;;;;;;5061913;28;20025;-64
2024/01/27 08:23:34;;;;;;;15.38;4.82;;;2.30;99.90;;;;;;5057990;28;20028;-64
2024/01/27 08:26:00;;;;;;;19.52;5.45;;;2.40;99.90;;;;;;5052568;28;20454;-65
2024/01/27 08:28:26;;;;;;;21.35;4.32;;;2.50;99.90;;;;;;5061482;28;20032;-65
2024/01/27 08:30:51;;;;;;;13.15;3.97;;;2.50;99.90;;;;;;5056927;28;20017;-64
2024/01/27 08:33:17;;;;;;;19.13;5.15;;;2.50;99.90;;;;;;5055530;28;20021;-64
2024/01/27 08:35:43;;;;;;;16.35;4.53;;;2.60;99.90;;;;;;5050035;28;20082;-64
2024/01/27 08:38:09;;;;;;;16.05;4.65;;;2.60;99.90;;;;;;5060567;28;20487;-62
2024/01/27 08:40:35;;;;;;;16.33;5.60;;;2.70;99.90;;;;;;5054000;28;20025;-64
2024/01/27 08:43:01;;;;;;;16.58;4.78;;;3.40;99.90;;;;;;5065628;28;20032;-63
2024/01/27 08:45:27;;;;;;;19.30;5.90;;;2.70;99.90;;;;;;5064689;28;20048;-61
2024/01/27 08:47:53;;;;;;;12.80;3.97;;;2.80;99.90;;;;;;5059298;28;20094;-61
2024/01/27 08:50:19;;;;;;;33.72;4.47;;;2.90;99.90;;;;;;5058127;28;20162;-62
2024/01/27 08:52:46;;;;;;;19.75;5.28;;;2.90;99.90;;;;;;5062421;28;20025;-62
2024/01/27 08:55:12;;;;;;;17.45;6.05;;;2.90;99.90;;;;;;5063895;28;20082;-61
2024/01/27 08:57:37;;;;;;;13.00;3.97;;;3.10;99.90;;;;;;5066643;28;20029;-61
2024/01/27 09:00:03;;;;;;;16.35;4.82;;;3.40;99.90;;;;;;5058647;28;20039;-62
2024/01/27 09:02:29;;;;;;;19.65;4.68;;;3.80;99.90;;;;;;5066631;28;20052;-61
2024/01/27 09:04:55;;;;;;;13.25;4.40;;;4.10;99.90;;;;;;5059825;28;20110;-62
2024/01/27 09:07:21;;;;;;;16.92;4.57;;;4.60;99.90;;;;;;5064023;28;20019;-61
2024/01/27 09:09:47;;;;;;;13.57;4.07;;;5.00;99.90;;;;;;5051338;28;20029;-60
2024/01/27 09:12:12;;;;;;;13.18;3.95;;;5.30;99.90;;;;;;5062408;28;20400;-62
2024/01/27 09:14:38;;;;;;;11.65;3.90;;;5.70;99.90;;;;;;5063185;28;20037;-62
2024/01/27 09:17:03;;;;;;;17.90;4.10;;;6.00;99.90;;;;;;5061733;28;20056;-61
2024/01/27 09:19:29;;;;;;;13.32;4.15;;;6.20;99.90;;;;;;5059342;28;20710;-61
2024/01/27 09:21:54;;;;;;;15.63;4.20;;;6.50;99.90;;;;;;5061034;28;20025;-62
2024/01/27 09:24:20;;;;;;;11.88;3.58;;;6.80;99.90;;;;;;5057819;28;20473;-61
2024/01/27 09:26:46;;;;;;;12.18;3.58;;;7.10;99.90;;;;;;5061959;28;20500;-62
2024/01/27 09:29:12;;;;;;;17.13;3.63;;;7.30;99.90;;;;;;5057027;28;20024;-61
2024/01/27 09:31:38;;;;;;;24.63;5.15;;;7.50;99.90;;;;;;5061779;28;20016;-61
2024/01/27 09:34:03;;;;;;;13.55;3.42;;;7.60;99.90;;;;;;5058813;28;20547;-62
2024/01/27 09:36:29;;;;;;;16.85;3.78;;;7.70;99.90;;;;;;5056895;28;20039;-61
2024/01/27 09:38:54;;;;;;;16.25;3.75;;;7.90;99.90;;;;;;5061937;28;20024;-61
2024/01/27 09:41:20;;;;;;;15.10;4.25;;;8.00;99.90;;;;;;5057711;28;20128;-61
2024/01/27 09:43:47;;;;;;;12.02;3.78;;;8.00;99.90;;;;;;5058981;28;20061;-62
2024/01/27 09:46:14;;;;;;;11.60;3.28;;;8.30;99.90;;;;;;5064174;28;20474;-62
2024/01/27 09:48:40;;;;;;;13.40;3.60;;;8.50;99.90;;;;;;5062608;28;20085;-63
2024/01/27 09:51:08;;;;;;;11.00;3.40;;;8.70;99.90;;;;;;5057915;28;20020;-63
2024/01/27 09:53:35;;;;;;;14.02;3.72;;;8.90;99.90;;;;;;5067296;28;20036;-63
2024/01/27 09:56:04;;;;;;;12.02;3.75;;;9.30;99.90;;;;;;5059698;28;20534;-63
2024/01/27 09:58:30;;;;;;;13.73;3.50;;;9.50;99.90;;;;;;5057672;28;20029;-63
2024/01/27 10:00:57;;;;;;;17.52;4.13;;;9.50;99.90;;;;;;5057766;28;20025;-63
2024/01/27 10:03:27;;;;;;;13.70;3.90;;;9.40;99.90;;;;;;5059062;28;20029;-63
2024/01/27 10:05:54;;;;;;;8.65;2.72;;;9.30;99.90;;;;;;5057553;28;20104;-62
2024/01/27 10:08:21;;;;;;;17.38;4.07;;;8.70;99.90;;;;;;5064502;28;20047;-63
2024/01/27 10:10:47;;;;;;;10.85;3.50;;;8.40;99.90;;;;;;5060668;28;20083;-62
2024/01/27 10:13:17;;;;;;;13.27;3.78;;;8.50;99.90;;;;;;5061177;28;20518;-63
2024/01/27 10:15:42;;;;;;;15.93;3.90;;;8.30;99.90;;;;;;5060412;28;20021;-63
2024/01/27 10:18:12;;;;;;;12.98;3.13;;;8.40;99.90;;;;;;5057079;28;20372;-64
2024/01/27 10:20:39;;;;;;;17.25;3.28;;;8.60;99.90;;;;;;5064097;28;20036;-63
2024/01/27 10:23:12;;;;;;;12.18;3.75;;;8.80;99.90;;;;;;5051308;28;20024;-63
2024/01/27 10:25:38;;;;;;;13.82;3.67;;;9.10;99.90;;;;;;5056408;28;20079;-63
2024/01/27 10:28:06;;;;;;;14.85;3.72;;;9.40;99.90;;;;;;5059431;28;20029;-63
2024/01/27 10:30:32;;;;;;;16.58;3.92;;;9.80;99.90;;;;;;5056395;28;20071;-63
2024/01/27 10:32:57;;;;;;;11.45;3.10;;;10.20;99.90;;;;;;5057700;28;20416;-63
2024/01/27 10:35:23;;;;;;;10.40;3.47;;;10.20;99.90;;;;;;5058149;28;20384;-63
2024/01/27 10:37:54;;;;;;;13.07;3.22;;;10.00;99.90;;;;;;5057117;28;20764;-63
2024/01/27 10:40:20;;;;;;;12.73;3.20;;;10.00;99.90;;;;;;5059041;28;20031;-63
2024/01/27 10:42:46;;;;;;;18.70;3.30;;;10.50;99.90;;;;;;5057275;28;20055;-63
2024/01/27 10:45:12;;;;;;;13.98;3.80;;;10.90;99.40;;;;;;5060564;28;20032;-63
2024/01/27 10:47:39;;;;;;;12.55;3.65;;;11.10;97.70;;;;;;5054708;28;20035;-63
2024/01/27 10:50:08;;;;;;;18.48;3.53;;;10.70;97.90;;;;;;5056975;28;20060;-63
2024/01/27 10:52:38;;;;;;;11.77;3.83;;;10.40;99.30;;;;;;5054510;28;20040;-63
2024/01/27 10:55:06;;;;;;;12.45;2.63;;;10.40;99.20;;;;;;5056096;28;20032;-63
2024/01/27 10:57:33;;;;;;;10.85;2.78;;;10.80;97.60;;;;;;5058578;28;20360;-62
2024/01/27 11:00:03;;;;;;;6.97;2.30;;;11.20;97.70;;;;;;5056828;28;20077;-61
2024/01/27 11:02:33;;;;;;;12.35;2.80;;;11.80;94.00;;;;;;5059863;28;20103;-61
2024/01/27 11:05:01;;;;;;;8.93;3.38;;;11.70;94.80;;;;;;5056245;28;20104;-61
2024/01/27 11:07:30;;;;;;;11.95;3.20;;;11.40;96.20;;;;;;5058913;28;20056;-61
2024/01/27 11:09:55;;;;;;;14.13;3.25;;;11.40;96.70;;;;;;5057467;28;20098;-61
2024/01/27 11:12:23;;;;;;;12.48;3.13;;;11.80;94.80;;;;;;5056959;28;20049;-62
2024/01/27 11:14:49;;;;;;;13.88;3.17;;;12.30;93.20;;;;;;5066843;28;20033;-61
2024/01/27 11:17:16;;;;;;;14.73;3.45;;;12.50;92.70;;;;;;5062997;28;20417;-61
2024/01/27 11:19:42;;;;;;;11.88;2.78;;;12.60;92.30;;;;;;5056692;28;20045;-61
2024/01/27 11:22:08;;;;;;;14.30;3.42;;;12.90;88.80;;;;;;5060437;28;20408;-61
2024/01/27 11:24:33;;;;;;;9.75;2.72;;;13.00;90.00;;;;;;5057938;28;20029;-61
2024/01/27 11:27:06;;;;;;;13.48;2.78;;;12.80;90.30;;;;;;5048296;28;20349;-61
2024/01/27 11:29:34;;;;;;;10.82;2.80;;;12.50;91.60;;;;;;5051264;28;20100;-61
2024/01/27 11:32:03;;;;;;;9.38;2.65;;;12.30;91.10;;;;;;5052202;28;20027;-61
2024/01/27 11:34:44;;;;;;;11.20;2.23;;;12.20;91.70;;;;;;5051067;28;20407;-61
2024/01/27 11:37:14;;;;;;;15.90;2.78;;;12.10;90.90;;;;;;5048670;28;20264;-62
2024/01/27 11:39:40;;;;;;;16.83;3.08;;;12.30;91.90;;;;;;5056893;28;20017;-62
2024/01/27 11:42:13;;;;;;;11.50;2.67;;;12.60;91.70;;;;;;5055450;28;20462;-62
2024/01/27 11:44:40;;;;;;;6.53;2.17;;;13.10;84.70;;;;;;5056472;28;20100;-62
2024/01/27 11:47:19;;;;;;;11.98;2.33;;;12.90;86.80;;;;;;5059538;28;20559;-62
2024/01/27 11:49:53;;;;;;;13.98;2.85;;;12.50;90.60;;;;;;5058209;28;20032;-61
2024/01/27 11:52:19;;;;;;;10.98;2.47;;;12.10;91.60;;;;;;5056929;28;20912;-62
2024/01/27 11:54:44;;;;;;;16.73;3.35;;;12.30;91.80;;;;;;5061180;28;20024;-62
2024/01/27 11:57:10;;;;;;;11.90;2.28;;;13.00;89.30;;;;;;5062105;28;20067;-62
2024/01/27 11:59:36;;;;;;;15.65;2.67;;;13.50;83.30;;;;;;5057700;28;20035;-62
2024/01/27 12:02:02;;;;;;;12.93;2.50;;;13.50;83.30;;;;;;5060046;28;20587;-62
2024/01/27 12:04:28;;;;;;;14.10;2.53;;;12.90;82.80;;;;;;5063992;28;20039;-61
2024/01/27 12:06:54;;;;;;;10.05;2.30;;;12.60;85.80;;;;;;5060131;28;20029;-60
2024/01/27 12:09:20;;;;;;;7.45;2.00;;;12.30;87.90;;;;;;5066719;28;20471;-63
2024/01/27 12:11:45;;;;;;;10.60;2.47;;;12.10;91.50;;;;;;5058986;28;20507;-62
2024/01/27 12:14:11;;;;;;;13.57;3.03;;;12.60;90.40;;;;;;5053220;28;20040;-62
2024/01/27 12:16:38;;;;;;;12.45;2.90;;;13.10;84.60;;;;;;5053790;28;20124;-62
2024/01/27 12:19:04;;;;;;;14.27;3.00;;;13.70;81.30;;;;;;5059985;28;20025;-62
2024/01/27 12:21:29;;;;;;;15.98;2.70;;;14.10;79.80;;;;;;5057649;28;20784;-62
2024/01/27 12:23:57;;;;;;;10.45;2.10;;;14.10;76.60;;;;;;5056982;28;20526;-62
2024/01/27 12:26:25;;;;;;;9.25;2.00;;;13.90;81.20;;;;;;5055217;28;20456;-62
2024/01/27 12:28:50;;;;;;;14.63;2.28;;;13.60;76.50;;;;;;5062101;28;20067;-62
2024/01/27 12:31:20;;;;;;;6.50;1.50;;;13.10;85.10;;;;;;5059677;28;20488;-63
2024/01/27 12:33:53;;;;;;;11.15;2.15;;;13.40;77.50;;;;;;5064456;28;20052;-64
2024/01/27 12:36:20;;;;;;;8.95;2.15;;;13.00;79.90;;;;;;5058500;28;20020;-65
2024/01/27 12:39:07;;;;;;;7.10;1.73;;;12.60;81.60;;;;;;5062863;28;20024;-63
2024/01/27 12:41:33;;;;;;;8.50;2.08;;;12.70;79.10;;;;;;5064135;28;20048;-63